RPi & Temperatures at JO21ut

Last graph updates: Thursday 05 December 2019 16:02 CET

Sunrise: 08:25 & Sunset: 16:30 The Sun is currently visible at an elevation of 1.91 degrees and azimut of 229 and 147409478 Km from the Earth
Moonrise: 14:09 & Moonset: 1:00 Waxing Gibbous Moon The Moon is 405447 Km from the Earth
Find here more details on MARS.

16:08:05 up 13 days, 17:00, 0 users, load average: 0.70, 0.84, 0.91
Current CPU frequency is: 1000 Mhz
Current GPU temperature: 27.172°C
Current inside temperature is 14.70°C with a humidity of 69.81%
Second inside temperature is 14.9°C with a pressure of 1015.52 Hpa (29.75 inHg) and an uncorrected altitude of -18.47 m
ds18b20 now showing 14.6°C

All the sensors I use, DHT22 | BMP085 | MPU6050 | BH1750FVI | MMA7455 | HMC5883L | MPL3115A2 | DS1307 | HTU21 | AM2321 | DS3231 | INA219 | LM75A , and it's current readout can be viewed here please be patient as it needs to read all sensors data. The page loads after about 10 seconds. In our forum more details can be found such as the used software/sources. Feel free to add yours also..


Pressure BMP085
Pressure BMP085
Pressure BMP085
Pressure BMP085
PI CPU Temp
Inet Volkel temp
Inside temp BMP085
Humidity BMP085
PI CPU Temp
Inet Volkel temp
Inside temp BMP085
Humidity BMP085
PI CPU Temp
Inet Volkel temp
Inside temp BMP085
Humidity BMP085
PI CPU Temp
Inet Volkel temp
Inside temp BMP085
Humidity BMP085
PI CPU Temp
Inet Volkel temp
Inside temp BMP085
Humidity BMP085
Inside light BH1750FV
Inside light BH1750FV
Inside light BH1750FV
Inside light BH1750FV
Inside light BH1750FV
Inside light BH1750FV
Sunlight hours
 

Sun & Moon position graph
Created with jpgraph 4.2.8


Wijchen weather

Weer Widget
ScreenSaver yr.no

Sun Moon Earth


EHEH 051455Z AUTO 21009KT 180V240 5000 BR FEW007 OVC008 04/03 Q1020 GRN 20008KT 4000 BR SCT008 BKN012 TEMPO SCT003 BKN007 EHEH 051455Z AUTO 21009KT 180V240 5000 BR FEW007 OVC008 04/03 Q1020 GRN 20008KT 4000 BR SCT008 BKN012 TEMPO SCT003 BKN007 EHEH 051455Z AUTO 21009KT 180V240 5000 BR FEW007 OVC008 04/03 Q1020 GRN 20008KT 4000 BR SCT008 BKN012 TEMPO SCT003 BKN007

Weather data from Volkel [NL] EHVK


13 minutes ago, at 14:55 UTC, the wind was calm in Volkel [EHVK], Netherlands. The temperature was 4 °C (39 °F) with a dewpoint of 3 °C (37 °F), and the pressure was 1,020 hPa (30.12 inHg). The relative humidity was 93.2%. There were a few clouds at a height of 213 meter (700 feet), overcast at a height of 244 meter (800 feet) and scattered clouds at a height of 244 meter (800 feet). The visibility was 4.0 kilometers (2.5 miles). Current weather is Moderate Mist Moderate Mist .




View code:

Contact me  |  My Raspberry PI forum